createdAt,value
2022-12-18T00:02:25.199Z,100350.95
2022-12-18T00:05:37.144Z,100358.75
2022-12-18T00:08:49.900Z,100364.80
2022-12-18T00:15:17.305Z,100367.47
2022-12-18T00:18:29.376Z,100383.00
2022-12-18T00:21:41.517Z,100381.30
2022-12-18T00:24:54.436Z,100392.55
2022-12-18T00:28:06.561Z,100394.23
2022-12-18T00:31:21.503Z,100401.20
2022-12-18T00:34:33.416Z,100403.83
2022-12-18T00:37:45.154Z,100398.59
2022-12-18T00:40:57.219Z,100402.04
2022-12-18T00:44:10.618Z,100409.82
2022-12-18T00:47:22.557Z,100413.27
2022-12-18T00:50:34.751Z,100415.01
2022-12-18T00:53:46.574Z,100425.38
2022-12-18T00:56:58.552Z,100427.95
2022-12-18T01:00:14.662Z,100432.28
2022-12-18T01:03:27.121Z,100436.63
2022-12-18T01:06:38.954Z,100436.60
2022-12-18T01:09:52.346Z,100439.20
2022-12-18T01:13:04.399Z,100448.70
2022-12-18T01:16:18.564Z,100445.26
2022-12-18T01:19:30.647Z,100453.90
2022-12-18T01:22:43.921Z,100453.94
2022-12-18T01:25:55.710Z,100457.38
2022-12-18T01:29:07.582Z,100457.38
2022-12-18T01:32:19.481Z,100455.64
2022-12-18T01:35:31.594Z,100458.19
2022-12-18T01:38:43.345Z,100470.30
2022-12-18T01:42:09.424Z,100471.19
2022-12-18T01:45:35.773Z,100472.08
2022-12-18T01:48:48.369Z,100472.91
2022-12-18T01:52:00.465Z,100477.22
2022-12-18T01:55:15.443Z,100479.83
2022-12-18T01:58:32.349Z,100478.97
2022-12-18T02:01:45.482Z,100480.67
2022-12-18T02:04:57.586Z,100487.64
2022-12-18T02:08:16.357Z,100490.26
2022-12-18T02:11:37.365Z,100490.26
2022-12-18T02:14:54.857Z,100501.48
2022-12-18T02:18:11.205Z,100507.49
2022-12-18T02:21:29.656Z,100509.23
2022-12-18T02:24:46.745Z,100522.19
2022-12-18T02:28:03.444Z,100535.18
2022-12-18T02:31:21.612Z,100524.80
2022-12-18T02:34:38.045Z,100533.44
2022-12-18T02:37:52.911Z,100534.29
2022-12-18T02:41:07.552Z,100529.95
2022-12-18T02:44:21.325Z,100544.67
2022-12-18T02:47:38.230Z,100553.28
2022-12-18T02:50:56.679Z,100555.02
2022-12-18T02:54:14.371Z,100555.91
2022-12-18T02:57:33.402Z,100555.90
2022-12-18T03:00:52.087Z,100565.42
2022-12-18T03:04:09.472Z,100558.53
2022-12-18T03:07:27.189Z,100561.11
2022-12-18T03:10:45.004Z,100560.27
2022-12-18T03:13:57.669Z,100568.91
2022-12-18T03:17:13.616Z,100574.14
2022-12-18T03:20:28.935Z,100575.88
2022-12-18T03:23:45.647Z,100574.98
2022-12-18T03:27:02.817Z,100581.92
2022-12-18T03:30:19.351Z,100582.76
2022-12-18T03:33:36.311Z,100591.42
2022-12-18T03:36:49.023Z,100589.69
2022-12-18T03:40:01.232Z,100592.28
2022-12-18T03:43:21.518Z,100597.44
2022-12-18T03:46:38.893Z,100600.05
2022-12-18T03:50:00.426Z,100606.98
2022-12-18T03:53:26.002Z,100615.62
2022-12-18T03:56:42.765Z,100606.13
2022-12-18T04:00:00.992Z,100606.13
2022-12-18T04:03:17.824Z,100611.31
2022-12-18T04:06:32.077Z,100616.47
2022-12-18T04:09:46.325Z,100626.82
2022-12-18T04:13:03.057Z,100621.66
2022-12-18T04:16:16.184Z,100630.33
2022-12-18T04:19:28.990Z,100627.73
2022-12-18T04:22:41.449Z,100633.81
2022-12-18T04:25:54.231Z,100632.10
2022-12-18T04:29:08.162Z,100633.83
2022-12-18T04:32:20.537Z,100632.08
2022-12-18T04:35:33.151Z,100638.17
2022-12-18T04:38:45.354Z,100645.95
2022-12-18T04:41:59.207Z,100652.88
2022-12-18T04:45:14.066Z,100660.67
2022-12-18T04:48:25.899Z,100656.34
2022-12-18T04:51:37.878Z,100659.80
2022-12-18T04:54:49.764Z,100664.17
2022-12-18T04:58:02.075Z,100676.24
2022-12-18T05:01:14.638Z,100678.86
2022-12-18T05:04:26.692Z,100675.38
2022-12-18T05:07:38.502Z,100685.77
2022-12-18T05:10:50.509Z,100678.84
2022-12-18T05:14:02.242Z,100689.23
2022-12-18T05:17:14.030Z,100689.23
2022-12-18T05:20:25.985Z,100690.11
2022-12-18T05:23:42.126Z,100687.52
2022-12-18T05:26:55.277Z,100698.76
2022-12-18T05:30:07.425Z,100703.95
2022-12-18T05:33:19.318Z,100708.23
2022-12-18T05:36:31.425Z,100703.94
2022-12-18T05:39:43.522Z,100703.93
2022-12-18T05:42:55.433Z,100705.66
2022-12-18T05:46:12.970Z,100709.98
2022-12-18T05:49:25.054Z,100718.63
2022-12-18T05:52:37.166Z,100716.89
2022-12-18T05:55:50.658Z,100721.23
2022-12-18T05:59:03.111Z,100729.85
2022-12-18T06:02:15.209Z,100733.30
2022-12-18T06:05:27.769Z,100739.38
2022-12-18T06:08:45.842Z,100745.44
2022-12-18T06:11:53.482Z,100752.31
2022-12-18T06:15:05.280Z,100754.94
2022-12-18T06:18:17.241Z,100761.86
2022-12-18T06:21:29.343Z,100765.32
2022-12-18T06:24:41.136Z,100748.89
2022-12-18T06:27:55.479Z,100754.05
2022-12-18T06:31:10.387Z,100759.26
2022-12-18T06:34:22.724Z,100760.99
2022-12-18T06:37:34.883Z,100767.06
2022-12-18T06:40:47.045Z,100761.88
2022-12-18T06:44:00.044Z,100771.34
2022-12-18T06:47:12.419Z,100781.71
2022-12-18T06:50:24.449Z,100786.05
2022-12-18T06:53:36.633Z,100792.11
2022-12-18T06:56:50.008Z,100793.84
2022-12-18T07:00:04.082Z,100805.08
2022-12-18T07:03:16.037Z,100805.07
2022-12-18T07:06:31.138Z,100811.98
2022-12-18T07:09:43.589Z,100810.27
2022-12-18T07:12:55.530Z,100815.44
2022-12-18T07:16:22.340Z,100823.21
2022-12-18T07:19:30.187Z,100820.63
2022-12-18T07:22:43.032Z,100831.85
2022-12-18T07:25:55.052Z,100831.86
2022-12-18T07:29:07.087Z,100838.77
2022-12-18T07:32:19.044Z,100845.68
2022-12-18T07:35:30.859Z,100850.02
2022-12-18T07:38:44.001Z,100836.17
2022-12-18T07:42:06.934Z,100865.55
2022-12-18T07:45:19.732Z,100870.75
2022-12-18T07:48:31.832Z,100869.00
2022-12-18T07:51:43.648Z,100873.33
2022-12-18T07:54:55.728Z,100873.28
2022-12-18T07:58:09.607Z,100876.73
2022-12-18T08:01:22.459Z,100879.31
2022-12-18T08:04:34.822Z,100881.89
2022-12-18T08:07:46.914Z,100881.01
2022-12-18T08:10:58.808Z,100873.20
2022-12-18T08:14:10.948Z,100874.92
2022-12-18T08:17:22.867Z,100886.21
2022-12-18T08:20:34.927Z,100887.08
2022-12-18T08:23:48.171Z,100887.95
2022-12-18T08:30:18.859Z,100900.06
2022-12-18T08:33:31.457Z,100897.42
2022-12-18T08:36:43.444Z,100900.85
2022-12-18T08:39:55.452Z,100898.22
2022-12-18T08:43:24.610Z,100899.94
2022-12-18T08:46:43.706Z,100903.37
2022-12-18T08:49:57.476Z,100900.70
2022-12-18T08:53:11.511Z,100904.98
2022-12-18T08:56:24.248Z,100906.67
2022-12-18T08:59:37.166Z,100909.23
2022-12-18T09:02:50.624Z,100914.34
2022-12-18T09:06:03.225Z,100916.06
2022-12-18T09:09:16.793Z,100925.50
2022-12-18T09:12:28.744Z,100918.59
2022-12-18T09:15:40.834Z,100910.87
2022-12-18T09:18:55.000Z,100911.67
2022-12-18T09:22:07.026Z,100922.96
2022-12-18T09:25:19.159Z,100928.16
2022-12-18T09:28:31.203Z,100928.86
2022-12-18T09:31:43.952Z,100925.36
2022-12-18T09:34:55.866Z,100933.99
2022-12-18T09:38:07.679Z,100928.64
2022-12-18T09:41:34.992Z,100926.77
2022-12-18T09:44:52.656Z,100920.52
2022-12-18T09:48:05.289Z,100918.72
2022-12-18T09:51:24.196Z,100919.50
2022-12-18T09:54:41.912Z,100931.53
2022-12-18T09:58:00.433Z,100931.55
2022-12-18T10:01:19.514Z,100924.70
2022-12-18T10:04:34.375Z,100933.34
2022-12-18T10:08:01.365Z,100931.91
2022-12-18T10:11:39.819Z,100923.15
2022-12-18T10:14:57.431Z,100926.73
2022-12-18T10:18:22.122Z,100929.25
2022-12-18T10:21:39.865Z,100929.28
2022-12-18T10:24:58.129Z,100937.14
2022-12-18T10:28:18.942Z,100930.23
2022-12-18T10:31:33.559Z,100927.60
2022-12-18T10:34:55.348Z,100932.84
2022-12-18T10:38:27.008Z,100918.97
2022-12-18T10:41:39.292Z,100904.96
2022-12-18T10:44:51.603Z,100904.84
2022-12-18T10:48:03.756Z,100916.97
2022-12-18T10:51:16.396Z,100920.33
2022-12-18T10:54:30.892Z,100906.39
2022-12-18T10:57:45.651Z,100902.91
2022-12-18T11:01:13.349Z,100901.17
2022-12-18T11:04:30.297Z,100901.92
2022-12-18T11:07:58.081Z,100894.03
2022-12-18T11:11:17.179Z,100891.30
2022-12-18T11:14:33.243Z,100880.69
2022-12-18T11:17:45.990Z,100886.42
2022-12-18T11:21:03.972Z,100879.70
2022-12-18T11:24:27.987Z,100867.65
2022-12-18T11:27:40.425Z,100872.73
2022-12-18T11:30:52.554Z,100870.03
2022-12-18T11:34:29.812Z,100858.41
2022-12-18T11:37:29.811Z,100865.97
2022-12-18T11:40:46.150Z,100871.22
2022-12-18T11:44:04.645Z,100871.00
2022-12-18T11:47:27.260Z,100866.61
2022-12-18T11:50:47.672Z,100878.20
2022-12-18T11:54:04.069Z,100884.51
2022-12-18T11:57:22.166Z,100883.67
2022-12-18T12:00:34.518Z,100876.86
2022-12-18T12:04:17.541Z,100887.23
2022-12-18T12:07:44.510Z,100889.28
2022-12-18T12:11:04.960Z,100886.75
2022-12-18T12:14:31.573Z,100890.20
2022-12-18T12:17:50.807Z,100880.77
2022-12-18T12:21:12.769Z,100882.56
2022-12-18T12:24:39.619Z,100886.22
2022-12-18T12:27:58.201Z,100889.69
2022-12-18T12:31:17.740Z,100886.23
2022-12-18T12:34:35.711Z,100895.05
2022-12-18T12:37:55.184Z,100900.20
2022-12-18T12:41:15.030Z,100911.60
2022-12-18T12:44:33.578Z,100923.78
2022-12-18T12:47:49.110Z,100928.13
2022-12-18T12:51:01.991Z,100923.92
2022-12-18T12:54:21.109Z,100933.56
2022-12-18T12:57:39.006Z,100932.79
2022-12-18T13:00:58.414Z,100938.95
2022-12-18T13:04:21.595Z,100945.09
2022-12-18T13:07:40.446Z,100944.29
2022-12-18T13:10:54.627Z,100952.19
2022-12-18T13:14:07.169Z,100955.69
2022-12-18T13:17:39.242Z,100959.19
2022-12-18T13:20:58.577Z,100951.41
2022-12-18T13:24:27.942Z,100960.97
2022-12-18T13:28:21.520Z,100963.61
2022-12-18T13:32:08.538Z,100962.73
2022-12-18T13:35:50.545Z,100959.33
2022-12-18T13:39:40.167Z,100965.44
2022-12-18T13:43:06.703Z,100974.18
2022-12-18T13:46:34.227Z,100988.95
2022-12-18T13:49:48.963Z,100972.60
2022-12-18T13:53:04.905Z,100992.53
2022-12-18T13:56:22.006Z,100999.55
2022-12-18T13:59:44.527Z,101001.30
2022-12-18T14:02:57.896Z,100956.37
2022-12-18T14:06:16.385Z,101004.82
2022-12-18T14:09:34.576Z,101005.72
2022-12-18T14:13:04.195Z,101019.58
2022-12-18T14:16:23.948Z,101017.84
2022-12-18T14:19:36.419Z,101018.72
2022-12-18T14:22:52.736Z,101029.11
2022-12-18T14:26:06.366Z,101032.53
2022-12-18T14:29:31.771Z,101030.78
2022-12-18T14:32:43.799Z,101038.55
2022-12-18T14:36:05.527Z,101025.58
2022-12-18T14:39:24.987Z,101029.88
2022-12-18T14:42:37.933Z,101035.89
2022-12-18T14:45:51.514Z,101047.95
2022-12-18T14:49:04.654Z,101048.78
2022-12-18T14:52:28.958Z,101060.87
2022-12-18T14:55:41.541Z,101060.84
2022-12-18T14:59:00.905Z,101069.42
2022-12-18T15:02:20.960Z,101060.70
2022-12-18T15:05:37.636Z,101046.00
2022-12-18T15:08:50.087Z,101043.33
2022-12-18T15:12:06.879Z,101046.80
2022-12-18T15:15:58.628Z,101054.56
2022-12-18T15:19:10.812Z,101064.05
2022-12-18T15:22:33.298Z,101065.63
2022-12-18T15:25:46.223Z,101062.08
2022-12-18T15:29:01.042Z,101060.25
2022-12-18T15:32:23.184Z,101061.91
2022-12-18T15:35:35.468Z,101066.31
2022-12-18T15:38:49.403Z,101073.96
2022-12-18T15:42:16.699Z,101082.48
2022-12-18T15:45:26.970Z,101091.95
2022-12-18T15:48:43.714Z,101088.51
2022-12-18T15:51:59.571Z,101096.14
2022-12-18T15:55:31.754Z,101104.66
2022-12-18T15:58:43.794Z,101097.70
2022-12-18T16:01:58.491Z,101102.73
2022-12-18T16:05:16.612Z,101103.41
2022-12-18T16:08:28.505Z,101104.29
2022-12-18T16:11:43.631Z,101106.89
2022-12-18T16:14:56.678Z,101110.26
2022-12-18T16:18:09.200Z,101123.02
2022-12-18T16:21:21.180Z,101126.40
2022-12-18T16:24:37.186Z,101117.76
2022-12-18T16:27:50.082Z,101114.28
2022-12-18T16:31:03.854Z,101135.67
2022-12-18T16:34:29.609Z,101138.09
2022-12-18T16:37:41.856Z,101134.60
2022-12-18T16:41:07.995Z,101134.60
2022-12-18T16:44:21.343Z,101143.15
2022-12-18T16:47:33.789Z,101149.91
2022-12-18T16:50:45.936Z,101147.93
2022-12-18T16:53:58.006Z,101154.84
2022-12-18T16:57:10.471Z,101155.66
2022-12-18T17:00:24.736Z,101146.24
2022-12-18T17:03:36.869Z,101150.61
2022-12-18T17:06:54.106Z,101153.19
2022-12-18T17:10:04.213Z,101156.53
2022-12-18T17:13:17.756Z,101158.33
2022-12-18T17:16:31.498Z,101163.31
2022-12-18T17:19:44.558Z,101159.91
2022-12-18T17:22:56.628Z,101153.55
2022-12-18T17:26:10.584Z,101142.33
2022-12-18T17:29:25.882Z,101145.52
2022-12-18T17:32:38.447Z,101146.25
2022-12-18T17:35:50.921Z,101131.67
2022-12-18T17:39:05.793Z,101129.74
2022-12-18T17:42:18.455Z,101127.88
2022-12-18T17:45:31.260Z,101122.61
2022-12-18T17:48:43.370Z,101133.69
2022-12-18T17:51:58.193Z,101129.33
2022-12-18T17:55:12.056Z,101121.67
2022-12-18T17:58:24.223Z,101120.67
2022-12-18T18:01:41.141Z,101114.60
2022-12-18T18:04:50.872Z,101117.77
2022-12-18T18:08:02.703Z,101123.89
2022-12-18T18:11:32.995Z,101128.93
2022-12-18T18:14:45.231Z,101114.18
2022-12-18T18:17:57.501Z,101091.40
2022-12-18T18:21:14.632Z,101126.02
2022-12-18T18:24:29.959Z,101133.20
2022-12-18T18:27:42.128Z,101145.63
2022-12-18T18:30:55.890Z,101149.18
2022-12-18T18:34:08.479Z,101150.94
2022-12-18T18:37:20.695Z,101162.88
2022-12-18T18:40:33.097Z,101169.09
2022-12-18T18:43:45.221Z,101160.47
2022-12-18T18:46:59.436Z,101151.22
2022-12-18T18:50:13.705Z,101156.12
2022-12-18T18:53:25.915Z,101165.21
2022-12-18T18:57:04.014Z,101162.55
2022-12-18T18:59:54.224Z,101159.91
2022-12-18T19:03:06.806Z,101154.91
2022-12-18T19:06:24.305Z,101157.04
2022-12-18T19:09:36.945Z,101155.01
2022-12-18T19:13:05.289Z,101152.47
2022-12-18T19:16:18.612Z,101152.00
2022-12-18T19:19:31.128Z,101147.64
2022-12-18T19:22:43.387Z,101160.22
2022-12-18T19:26:16.973Z,101163.11
2022-12-18T19:29:16.293Z,101166.94
2022-12-18T19:32:28.627Z,101176.16
2022-12-18T19:35:40.745Z,101174.67
2022-12-18T19:38:53.807Z,101180.72
2022-12-18T19:42:06.073Z,101182.63
2022-12-18T19:45:19.215Z,101193.28
2022-12-18T19:48:31.364Z,101200.59
2022-12-18T19:51:46.934Z,101190.33
2022-12-18T19:54:59.005Z,101197.41
2022-12-18T19:58:11.505Z,101209.13
2022-12-18T20:01:26.074Z,101205.91
2022-12-18T20:04:38.536Z,101211.70
2022-12-18T20:07:51.042Z,101207.41
2022-12-18T20:11:03.349Z,101213.42
2022-12-18T20:14:18.749Z,101202.23
2022-12-18T20:17:30.286Z,101190.25
2022-12-18T20:20:44.387Z,101203.89
2022-12-18T20:24:00.247Z,101208.33
2022-12-18T20:27:16.154Z,101214.19
2022-12-18T20:30:27.298Z,101215.30
2022-12-18T20:33:40.950Z,101225.83
2022-12-18T20:36:53.659Z,101222.16
2022-12-18T20:40:05.794Z,101212.92
2022-12-18T20:43:21.249Z,101211.13
2022-12-18T20:46:33.922Z,101202.35
2022-12-18T20:49:46.315Z,101201.17
2022-12-18T20:52:58.951Z,101197.53
2022-12-18T20:56:17.736Z,101195.50
2022-12-18T20:59:30.164Z,101195.46
2022-12-18T21:02:42.726Z,101181.98
2022-12-18T21:05:55.206Z,101175.73
2022-12-18T21:09:07.209Z,101169.87
2022-12-18T21:12:42.543Z,101169.09
2022-12-18T21:15:54.096Z,101164.22
2022-12-18T21:19:06.397Z,101170.45
2022-12-18T21:22:20.806Z,101175.91
2022-12-18T21:25:33.446Z,101177.38
2022-12-18T21:28:47.868Z,101165.06
2022-12-18T21:32:01.509Z,101146.06
2022-12-18T21:35:16.109Z,101164.67
2022-12-18T21:38:30.604Z,101154.67
2022-12-18T21:41:58.573Z,101145.71
2022-12-18T21:45:12.319Z,101150.03
2022-12-18T21:48:24.765Z,101138.86
2022-12-18T21:51:37.598Z,101138.47
2022-12-18T21:54:50.009Z,101140.83
2022-12-18T21:58:02.787Z,101146.34
2022-12-18T22:01:15.105Z,101147.98
2022-12-18T22:04:28.132Z,101148.66
2022-12-18T22:07:41.009Z,101150.25
2022-12-18T22:10:52.907Z,101149.37
2022-12-18T22:14:04.880Z,101150.55
2022-12-18T22:17:17.299Z,101162.77
2022-12-18T22:20:30.751Z,101159.87
2022-12-18T22:23:42.593Z,101153.77
2022-12-18T22:27:02.008Z,101164.83
2022-12-18T22:30:15.698Z,101163.02
2022-12-18T22:33:28.654Z,101147.33
2022-12-18T22:36:45.951Z,101146.45
2022-12-18T22:39:58.688Z,101146.27
2022-12-18T22:43:11.407Z,101135.34
2022-12-18T22:46:25.383Z,101141.61
2022-12-18T22:49:37.481Z,101141.34
2022-12-18T22:52:49.714Z,101141.11
2022-12-18T22:56:08.224Z,101136.88
2022-12-18T22:59:24.951Z,101145.57
2022-12-18T23:02:37.135Z,101127.84
2022-12-18T23:05:49.378Z,101130.02
2022-12-18T23:09:04.240Z,101135.84
2022-12-18T23:12:20.854Z,101143.42
2022-12-18T23:15:33.261Z,101143.16
2022-12-18T23:18:46.078Z,101128.81
2022-12-18T23:21:59.120Z,101133.67
2022-12-18T23:25:13.879Z,101134.20
2022-12-18T23:28:25.929Z,101137.55
2022-12-18T23:31:42.552Z,101135.13
2022-12-18T23:34:54.688Z,101136.44
2022-12-18T23:38:06.698Z,101134.00
2022-12-18T23:41:22.169Z,101139.16
2022-12-18T23:44:34.431Z,101131.69
2022-12-18T23:47:47.047Z,101136.23
2022-12-18T23:51:01.053Z,101141.27
2022-12-18T23:54:14.278Z,101146.44
2022-12-18T23:57:26.439Z,101140.13
